Time;durP1;ratioP1;P1;durP2;ratioP2;P2;SDS_P1;SDS_P2;PMS_P1;PMS_P2;Temp;Humidity;BMP_temperature;BMP_pressure;BME280_temperature;BME280_humidity;BME280_pressure;Samples;Min_cycle;Max_cycle;Signal;HPM_P1;HPM_P2
2023/02/24 00:01:23;;;;;;;12.00;5.77;;;;;;;-2.54;39.85;99035.75;5073369;28;20048;-62
2023/02/24 00:03:55;;;;;;;13.83;6.13;;;;;;;-2.14;39.91;99039.38;5040109;28;20036;-61
2023/02/24 00:06:25;;;;;;;15.80;5.77;;;;;;;-2.61;39.67;99039.63;5055488;28;20048;-61
2023/02/24 00:08:52;;;;;;;12.18;6.20;;;;;;;-2.59;39.35;99036.94;5072474;28;20087;-61
2023/02/24 00:11:18;;;;;;;13.43;6.10;;;;;;;-2.55;39.55;99036.66;5038703;28;20074;-62
2023/02/24 00:13:47;;;;;;;13.93;6.07;;;;;;;-2.42;39.47;99035.00;5055745;28;20189;-63
2023/02/24 00:16:18;;;;;;;15.20;5.97;;;;;;;-2.30;39.24;99023.03;5055832;28;20055;-61
2023/02/24 00:18:44;;;;;;;11.13;5.40;;;;;;;-2.56;39.45;99027.19;5038751;28;20070;-64
2023/02/24 00:21:15;;;;;;;12.03;6.03;;;;;;;-2.21;39.72;99020.69;5055310;28;20044;-65
2023/02/24 00:23:45;;;;;;;12.03;5.57;;;;;;;-2.48;39.16;99019.78;5055535;28;20044;-61
2023/02/24 00:26:13;;;;;;;13.10;6.10;;;;;;;-2.62;39.55;99021.53;5055535;28;20407;-62
2023/02/24 00:28:40;;;;;;;14.50;6.27;;;;;;;-2.87;40.18;99022.16;5071767;28;20048;-61
2023/02/24 00:31:12;;;;;;;12.37;6.47;;;;;;;-2.76;40.17;99018.91;5072035;28;20430;-60
2023/02/24 00:33:39;;;;;;;18.27;6.80;;;;;;;-2.85;40.23;99007.31;5071994;28;20036;-66
2023/02/24 00:36:05;;;;;;;10.03;5.80;;;;;;;-3.10;40.12;99012.25;5055585;28;20047;-62
2023/02/24 00:38:34;;;;;;;14.60;6.37;;;;;;;-3.23;40.55;99000.06;5054608;28;20044;-63
2023/02/24 00:41:08;;;;;;;18.20;6.60;;;;;;;-2.81;40.76;98998.41;5038551;28;20047;-62
2023/02/24 00:43:36;;;;;;;11.60;5.63;;;;;;;-3.15;40.57;98980.50;5055067;28;20055;-61
2023/02/24 00:46:09;;;;;;;20.53;7.10;;;;;;;-2.94;40.46;98989.66;5038171;28;20139;-57
2023/02/24 00:48:39;;;;;;;12.57;6.20;;;;;;;-2.97;40.44;98983.81;5056423;28;20511;-60
2023/02/24 00:51:13;;;;;;;11.80;5.80;;;;;;;-2.66;40.33;98975.88;5055345;28;20056;-60
2023/02/24 00:53:39;;;;;;;9.93;5.00;;;;;;;-3.10;40.17;98972.47;5070998;28;20442;-56
2023/02/24 00:56:06;;;;;;;13.90;5.97;;;;;;;-2.87;39.95;98969.34;5021761;28;20127;-57
2023/02/24 00:58:35;;;;;;;14.03;5.40;;;;;;;-2.59;40.01;98969.38;5037939;28;20089;-61
2023/02/24 01:01:03;;;;;;;12.87;5.87;;;;;;;-2.77;39.65;98967.88;5021506;28;20456;-64
2023/02/24 01:03:31;;;;;;;12.43;6.47;;;;;;;-2.82;39.50;98960.38;5054631;28;20407;-57
2023/02/24 01:06:02;;;;;;;13.37;5.90;;;;;;;-2.74;39.56;98965.09;5053818;28;20063;-61
2023/02/24 01:08:29;;;;;;;13.47;5.67;;;;;;;-2.96;39.26;98949.97;5070827;28;20534;-62
2023/02/24 01:13:44;;;;;;;12.60;5.47;;;;;;;-2.80;39.25;98948.13;5056121;28;20040;-59
2023/02/24 01:16:17;;;;;;;13.00;5.53;;;;;;;-2.83;39.08;98950.88;5037334;28;20044;-60
2023/02/24 01:18:47;;;;;;;17.40;5.90;;;;;;;-2.44;39.16;98956.28;5053829;28;20075;-61
2023/02/24 01:21:15;;;;;;;11.43;6.00;;;;;;;-2.42;38.98;98948.38;5037575;28;20131;-61
2023/02/24 01:23:41;;;;;;;14.70;6.13;;;;;;;-2.47;38.35;98930.47;5070936;28;20047;-63
2023/02/24 01:26:08;;;;;;;13.33;5.97;;;;;;;-2.48;38.53;98949.59;5055165;28;20069;-61
2023/02/24 01:28:36;;;;;;;13.43;5.83;;;;;;;-2.48;38.21;98931.41;5054115;28;20044;-61
2023/02/24 01:31:04;;;;;;;10.87;4.70;;;;;;;-2.40;38.24;98925.72;5053975;28;20481;-60
2023/02/24 01:33:38;;;;;;;14.57;5.87;;;;;;;-2.71;38.35;98912.94;5037236;28;20197;-61
2023/02/24 01:36:08;;;;;;;15.03;5.63;;;;;;;-2.48;38.63;98938.34;5070576;28;20094;-62
2023/02/24 01:38:35;;;;;;;16.60;5.90;;;;;;;-2.98;38.55;98915.44;5053778;28;20044;-58
2023/02/24 01:41:03;;;;;;;13.13;5.70;;;;;;;-2.74;38.56;98907.94;5053834;28;20044;-58
2023/02/24 01:43:33;;;;;;;14.20;5.47;;;;;;;-2.63;38.49;98913.31;5070529;28;20075;-58
2023/02/24 01:45:59;;;;;;;10.00;4.80;;;;;;;-2.82;38.30;98911.00;5021001;28;20052;-57
2023/02/24 01:48:25;;;;;;;11.40;5.40;;;;;;;-2.58;38.26;98900.84;5053444;28;20045;-59
2023/02/24 01:50:51;;;;;;;11.47;5.90;;;;;;;-2.85;38.62;98892.16;5070442;28;20045;-59
2023/02/24 01:53:18;;;;;;;12.77;5.33;;;;;;;-2.73;38.46;98889.66;5055287;28;20062;-60
2023/02/24 01:55:48;;;;;;;12.87;5.47;;;;;;;-2.77;38.81;98903.78;5073778;28;20047;-60
2023/02/24 01:58:26;;;;;;;17.92;5.93;;;;;;;-2.60;38.99;98882.75;5070736;28;20043;-59
2023/02/24 02:00:54;;;;;;;8.87;4.87;;;;;;;-2.91;38.60;98882.16;5087271;28;20048;-60
2023/02/24 02:03:28;;;;;;;21.00;6.13;;;;;;;-2.54;39.03;98886.75;5036816;28;20048;-63
2023/02/24 02:06:05;;;;;;;13.80;5.70;;;;;;;-2.56;39.21;98886.00;5038988;28;20048;-63
2023/02/24 02:08:32;;;;;;;14.17;6.53;;;;;;;-2.92;39.12;98877.88;5073587;28;20044;-59
2023/02/24 02:11:02;;;;;;;11.37;5.57;;;;;;;-2.68;39.17;98873.78;5057600;28;20060;-62
2023/02/24 02:13:34;;;;;;;11.20;5.23;;;;;;;-2.78;39.03;98883.06;5057984;28;20071;-62
2023/02/24 02:16:50;;;;;;;12.97;5.57;;;;;;;-2.63;39.25;98871.72;5024311;28;20075;-60
2023/02/24 02:19:37;;;;;;;9.87;5.27;;;;;;;-2.67;39.22;98872.84;5074440;28;20051;-60
2023/02/24 02:22:12;;;;;;;10.77;5.20;;;;;;;-2.78;38.88;98870.09;5073931;28;20050;-59
2023/02/24 02:24:50;;;;;;;12.90;5.60;;;;;;;-2.74;39.04;98866.34;5057701;28;20101;-59
2023/02/24 02:28:03;;;;;;;11.23;4.97;;;;;;;-2.66;39.13;98851.13;5073757;28;20077;-60
2023/02/24 02:30:30;;;;;;;11.73;5.37;;;;;;;-3.27;39.12;98838.44;5032964;28;20424;-61
2023/02/24 02:33:08;;;;;;;10.23;4.80;;;;;;;-2.80;38.91;98856.34;5065805;28;20051;-60
2023/02/24 02:36:06;;;;;;;14.57;4.97;;;;;;;-2.95;39.27;98841.72;5044367;28;20040;-59
2023/02/24 02:38:44;;;;;;;11.40;5.53;;;;;;;-2.85;39.51;98833.25;5041114;28;20051;-60
2023/02/24 02:41:35;;;;;;;12.27;4.77;;;;;;;-2.79;39.30;98826.84;5060905;28;20066;-61
2023/02/24 02:44:08;;;;;;;;;;;;;;;-2.73;39.03;98818.66;5061152;28;20032;-60
2023/02/24 02:46:43;;;;;;;8.93;4.60;;;;;;;-2.92;39.34;98816.34;5044039;28;19915;-60
2023/02/24 02:49:15;;;;;;;10.60;4.50;;;;;;;-3.10;39.63;98817.50;5043848;28;20050;-60
2023/02/24 02:51:42;;;;;;;;;;;;;;;-2.85;39.35;98807.28;5078062;28;20062;-58
2023/02/24 02:54:19;;;;;;;8.20;3.77;;;;;;;-3.05;39.36;98797.28;5043779;28;19927;-60
2023/02/24 02:57:09;;;;;;;12.20;4.20;;;;;;;-2.98;39.50;98802.94;5060735;28;20446;-59
2023/02/24 02:59:39;;;;;;;7.70;4.32;;;;;;;-3.31;39.83;98777.28;5062647;28;20055;-58
2023/02/24 03:02:13;;;;;;;9.47;4.07;;;;;;;-3.26;39.67;98788.22;5060811;28;20135;-61
2023/02/24 03:04:49;;;;;;;24.30;4.77;;;;;;;-3.17;39.87;98782.47;5093615;28;20040;-59
2023/02/24 03:07:16;;;;;;;11.87;4.77;;;;;;;-3.38;39.89;98767.34;5077512;28;20350;-61
2023/02/24 03:09:45;;;;;;;16.63;6.43;;;;;;;-3.32;40.05;98751.41;5060211;28;20387;-60
2023/02/24 03:12:14;;;;;;;12.97;4.63;;;;;;;-3.23;39.93;98764.66;5076874;28;20130;-60
2023/02/24 03:14:49;;;;;;;12.73;4.73;;;;;;;-3.23;40.04;98743.03;5043440;28;20305;-58
2023/02/24 03:17:21;;;;;;;10.13;4.03;;;;;;;-3.37;40.29;98750.84;5076870;28;20044;-57
2023/02/24 03:19:52;;;;;;;8.03;4.13;;;;;;;-3.47;40.28;98720.25;5060082;28;20377;-59
2023/02/24 03:22:26;;;;;;;7.23;4.53;;;;;;;-3.29;40.33;98744.25;5028136;28;20471;-60
2023/02/24 03:24:52;;;;;;;7.67;4.00;;;;;;;-3.65;40.37;98736.97;5060343;28;20514;-60
2023/02/24 03:27:35;;;;;;;7.13;4.50;;;;;;;-3.25;40.32;98729.31;5046718;28;20305;-60
2023/02/24 03:30:11;;;;;;;11.17;4.47;;;;;;;-3.17;40.39;98720.16;5076658;28;20317;-62
2023/02/24 03:32:49;;;;;;;8.20;4.17;;;;;;;-3.21;40.72;98708.25;5060046;28;20813;-58
2023/02/24 03:35:21;;;;;;;10.80;4.77;;;;;;;-3.21;40.36;98716.06;5060650;28;20346;-59
2023/02/24 03:37:48;;;;;;;10.13;3.83;;;;;;;-3.55;40.24;98713.84;5043608;28;20051;-60
2023/02/24 03:40:15;;;;;;;8.13;4.57;;;;;;;-3.47;40.43;98697.84;5059418;28;20290;-59
2023/02/24 03:42:50;;;;;;;8.63;4.20;;;;;;;-3.17;40.66;98686.41;5092770;28;20626;-61
2023/02/24 03:45:17;;;;;;;7.10;4.20;;;;;;;-3.26;40.26;98694.75;5076616;28;20369;-60
2023/02/24 03:47:46;;;;;;;9.70;4.80;;;;;;;-3.55;40.66;98673.19;5076161;28;20323;-60
2023/02/24 03:50:17;;;;;;;12.07;5.00;;;;;;;-3.22;40.89;98675.44;5059893;28;20339;-58
2023/02/24 03:53:07;;;;;;;7.43;3.80;;;;;;;-3.41;40.76;98650.75;5060689;28;20831;-58
2023/02/24 03:55:48;;;;;;;5.83;3.27;;;;;;;-3.37;41.00;98649.63;5059182;28;20342;-60
2023/02/24 03:58:17;;;;;;;9.90;4.78;;;;;;;-3.43;41.01;98668.16;5075880;28;20286;-61
2023/02/24 04:00:59;;;;;;;8.80;4.82;;;;;;;-3.35;41.07;98661.56;5059603;28;20040;-61
2023/02/24 04:03:28;;;;;;;12.60;4.77;;;;;;;-3.76;40.73;98658.94;5059035;28;20367;-60
2023/02/24 04:06:12;;;;;;;12.97;5.07;;;;;;;-3.29;41.10;98660.38;5060338;28;20048;-61
2023/02/24 04:09:00;;;;;;;11.17;4.70;;;;;;;-3.28;40.66;98642.09;5059068;28;20672;-58
2023/02/24 04:11:32;;;;;;;9.60;4.30;;;;;;;-3.42;40.61;98639.53;5059762;28;20300;-60
2023/02/24 04:14:05;;;;;;;13.00;6.17;;;;;;;-3.38;40.80;98635.00;5058870;28;20301;-61
2023/02/24 04:16:43;;;;;;;16.03;4.97;;;;;;;-3.32;41.02;98619.84;5058873;28;20317;-58
2023/02/24 04:19:14;;;;;;;8.47;5.30;;;;;;;-3.41;41.28;98609.22;5042405;28;20040;-58
2023/02/24 04:21:42;;;;;;;9.37;4.77;;;;;;;-3.55;41.08;98618.69;5058913;28;20036;-58
2023/02/24 04:24:15;;;;;;;12.53;4.87;;;;;;;-3.56;41.04;98613.59;5059426;28;20369;-62
2023/02/24 04:26:44;;;;;;;8.83;4.40;;;;;;;-3.46;41.32;98617.31;5059170;28;20301;-61
2023/02/24 04:29:16;;;;;;;8.47;4.07;;;;;;;-3.46;41.08;98602.53;5058642;28;20479;-61
2023/02/24 04:31:45;;;;;;;9.27;5.43;;;;;;;-3.36;41.23;98605.41;5074747;28;20048;-57
2023/02/24 04:34:11;;;;;;;11.17;4.97;;;;;;;-3.64;41.33;98608.91;5058575;28;20039;-56
2023/02/24 04:36:38;;;;;;;14.00;5.87;;;;;;;-3.57;40.96;98612.75;5075471;28;20278;-57
2023/02/24 04:39:06;;;;;;;14.07;5.07;;;;;;;-3.47;40.94;98607.03;5058484;28;20192;-60
2023/02/24 04:41:32;;;;;;;12.17;5.07;;;;;;;-3.54;40.52;98604.78;5058406;28;20040;-60
2023/02/24 04:43:58;;;;;;;9.20;4.83;;;;;;;-3.44;40.71;98604.22;5075080;28;20274;-60
2023/02/24 04:46:23;;;;;;;14.97;4.77;;;;;;;-3.40;40.50;98610.88;5041811;28;20036;-58
2023/02/24 04:48:49;;;;;;;9.97;5.30;;;;;;;-3.42;40.79;98594.56;5025470;28;20139;-59
2023/02/24 04:51:15;;;;;;;10.67;5.30;;;;;;;-3.45;40.82;98598.19;5041478;28;20146;-58
2023/02/24 04:53:41;;;;;;;13.73;5.63;;;;;;;-3.46;40.79;98592.16;5041412;28;20078;-59
2023/02/24 04:56:07;;;;;;;10.07;4.80;;;;;;;-3.27;40.69;98589.22;5041552;28;20105;-59
2023/02/24 04:58:36;;;;;;;9.40;4.80;;;;;;;-2.97;40.65;98594.22;5058136;28;20143;-60
2023/02/24 05:01:10;;;;;;;9.93;5.57;;;;;;;-2.89;40.65;98571.19;5057993;28;20506;-58
2023/02/24 05:03:37;;;;;;;11.97;5.53;;;;;;;-3.03;40.34;98586.84;5074899;28;20052;-62
2023/02/24 05:06:05;;;;;;;9.83;5.23;;;;;;;-3.37;40.97;98561.38;5092436;28;20043;-60
2023/02/24 05:08:31;;;;;;;10.27;5.40;;;;;;;-3.09;40.69;98582.84;5058123;28;20040;-60
2023/02/24 05:10:57;;;;;;;9.03;4.67;;;;;;;-3.15;40.90;98577.25;5041050;28;20083;-59
2023/02/24 05:13:30;;;;;;;17.83;4.70;;;;;;;-2.70;41.05;98575.06;5041467;28;20043;-59
2023/02/24 05:16:02;;;;;;;7.37;4.43;;;;;;;-2.70;40.90;98575.06;5092288;28;20039;-60
2023/02/24 05:18:34;;;;;;;8.67;4.90;;;;;;;-2.93;40.33;98560.16;5057876;28;20064;-61
2023/02/24 05:23:52;;;;;;;9.60;5.50;;;;;;;-2.66;40.43;98547.91;5043764;28;20483;-59
2023/02/24 05:26:19;;;;;;;9.33;5.13;;;;;;;-2.67;40.17;98550.63;5057733;28;20048;-61
2023/02/24 05:28:48;;;;;;;9.80;4.83;;;;;;;-2.54;40.24;98549.72;5074466;28;20043;-59
2023/02/24 05:31:25;;;;;;;8.53;5.37;;;;;;;-2.30;40.78;98536.81;5074479;28;20134;-60
2023/02/24 05:33:59;;;;;;;9.73;5.27;;;;;;;-2.41;40.30;98540.13;5058233;28;20055;-61
2023/02/24 05:36:28;;;;;;;11.97;6.13;;;;;;;-2.42;40.48;98520.28;5075523;28;20040;-60
2023/02/24 05:38:57;;;;;;;16.67;5.90;;;;;;;-2.48;40.60;98523.31;5057964;28;20043;-60
2023/02/24 05:41:34;;;;;;;11.57;5.40;;;;;;;-2.49;40.59;98515.63;5074797;28;20131;-59
2023/02/24 05:44:07;;;;;;;9.13;4.97;;;;;;;-2.36;40.55;98519.88;5092008;28;20507;-62
2023/02/24 05:46:36;;;;;;;11.60;5.37;;;;;;;-2.39;40.50;98504.47;5057386;28;20036;-58
2023/02/24 05:49:13;;;;;;;14.10;5.70;;;;;;;-2.22;40.79;98495.50;5092027;28;20472;-61
2023/02/24 05:51:42;;;;;;;12.43;5.80;;;;;;;-2.58;40.81;98503.22;5090843;28;20044;-61
2023/02/24 05:54:12;;;;;;;14.67;5.87;;;;;;;-2.15;40.73;98500.19;5057331;28;20124;-59
2023/02/24 05:56:42;;;;;;;13.27;6.05;;;;;;;-2.31;40.37;98501.34;5074666;28;20074;-60
2023/02/24 05:59:10;;;;;;;17.40;6.63;;;;;;;-2.20;40.72;98481.44;5074522;28;20090;-61
2023/02/24 06:01:40;;;;;;;14.87;6.53;;;;;;;-2.05;40.50;98476.97;5057281;28;20069;-61
2023/02/24 06:04:07;;;;;;;12.85;6.22;;;;;;;-1.94;40.30;98479.63;5076581;28;20048;-61
2023/02/24 06:06:35;;;;;;;11.50;5.33;;;;;;;-2.01;40.24;98478.38;5044743;28;20050;-60
2023/02/24 06:09:06;;;;;;;15.27;6.17;;;;;;;-2.01;40.65;98461.03;5078072;28;20043;-60
2023/02/24 06:11:33;;;;;;;14.63;6.20;;;;;;;-2.09;40.03;98459.91;5061701;28;20055;-59
2023/02/24 06:13:59;;;;;;;13.00;6.13;;;;;;;-2.22;40.05;98459.09;5061186;28;20530;-60
2023/02/24 06:16:25;;;;;;;10.23;6.07;;;;;;;-2.20;40.03;98452.03;5028476;28;20139;-60
2023/02/24 06:18:51;;;;;;;10.20;5.57;;;;;;;-2.05;39.88;98470.00;5044269;28;20142;-60
2023/02/24 06:21:17;;;;;;;10.57;5.97;;;;;;;-1.89;39.96;98454.09;5044502;28;20040;-59
2023/02/24 06:23:44;;;;;;;13.60;6.50;;;;;;;-2.17;40.31;98439.63;5027955;28;20093;-61
2023/02/24 06:26:18;;;;;;;11.37;6.07;;;;;;;-2.00;40.42;98431.47;5061084;28;20062;-60
2023/02/24 06:28:46;;;;;;;13.20;6.03;;;;;;;-1.45;40.67;98430.91;5077564;28;20052;-58
2023/02/24 06:31:13;;;;;;;12.30;6.10;;;;;;;-1.70;40.41;98444.03;5077605;28;20046;-61
2023/02/24 06:33:40;;;;;;;12.93;6.90;;;;;;;-1.60;40.46;98431.19;5061065;28;20044;-62
2023/02/24 06:36:07;;;;;;;10.17;5.67;;;;;;;-1.61;40.50;98425.16;5077632;28;20590;-61
2023/02/24 06:38:34;;;;;;;13.60;6.27;;;;;;;-1.49;40.73;98426.03;5060759;28;20388;-59
2023/02/24 06:41:09;;;;;;;11.53;5.63;;;;;;;-1.40;40.80;98421.00;5077330;28;20032;-61
2023/02/24 06:43:37;;;;;;;16.43;6.23;;;;;;;-1.32;40.74;98420.41;5045399;28;20042;-60
2023/02/24 06:46:05;;;;;;;10.23;5.17;;;;;;;-1.19;40.68;98411.56;5060649;28;20044;-60
2023/02/24 06:48:32;;;;;;;13.80;6.77;;;;;;;-2.01;42.17;98414.22;5077295;28;20039;-60
2023/02/24 06:51:06;;;;;;;11.20;5.67;;;;;;;-1.29;42.77;98401.97;5061037;28;20035;-60
2023/02/24 06:53:34;;;;;;;12.30;5.83;;;;;;;-1.63;43.61;98400.19;5076858;28;20113;-59
2023/02/24 06:56:05;;;;;;;14.37;6.07;;;;;;;-1.39;44.05;98409.63;5077350;28;20040;-62
2023/02/24 06:58:31;;;;;;;13.67;6.17;;;;;;;-1.37;44.16;98407.75;5094679;28;20491;-61
2023/02/24 07:00:57;;;;;;;17.90;7.07;;;;;;;-1.86;45.10;98389.69;5027396;28;20066;-61
2023/02/24 07:03:37;;;;;;;9.57;5.77;;;;;;;-1.83;46.16;98399.06;5027046;28;20048;-59
2023/02/24 07:06:28;;;;;;;16.17;6.43;;;;;;;-1.54;46.64;98389.94;5076960;28;20127;-60
2023/02/24 07:08:56;;;;;;;14.23;6.53;;;;;;;-1.33;47.06;98403.94;5063177;28;20147;-59
2023/02/24 07:11:23;;;;;;;17.90;6.63;;;;;;;-1.70;46.99;98378.97;5060305;28;20297;-58
2023/02/24 07:13:49;;;;;;;13.50;6.27;;;;;;;-1.47;47.79;98390.28;5026658;28;20043;-59
2023/02/24 07:16:16;;;;;;;13.63;6.73;;;;;;;-1.26;48.34;98386.91;5042348;28;20120;-57
2023/02/24 07:18:47;;;;;;;17.43;6.90;;;;;;;-1.18;48.40;98379.34;5060305;28;20093;-60
2023/02/24 07:21:15;;;;;;;17.90;6.90;;;;;;;-1.27;48.42;98393.06;5076926;28;20039;-59
2023/02/24 07:23:42;;;;;;;16.73;7.70;;;;;;;-1.52;48.92;98372.41;5060113;28;20105;-61
2023/02/24 07:26:10;;;;;;;18.67;7.73;;;;;;;-1.02;48.92;98358.19;5076261;28;20059;-60
2023/02/24 07:28:40;;;;;;;18.87;7.50;;;;;;;-0.91;48.52;98358.19;5059671;28;20561;-60
2023/02/24 07:31:07;;;;;;;19.70;7.77;;;;;;;-0.91;48.65;98373.84;5093989;28;20032;-61
2023/02/24 07:33:35;;;;;;;18.50;7.70;;;;;;;-0.80;48.33;98364.22;5093668;28;20083;-60
2023/02/24 07:36:07;;;;;;;12.47;6.63;;;;;;;-0.79;48.63;98365.91;5076613;28;20536;-59
2023/02/24 07:38:37;;;;;;;14.73;7.77;;;;;;;-0.97;48.99;98330.00;5076822;28;20181;-60
2023/02/24 07:41:09;;;;;;;16.70;7.97;;;;;;;-1.11;50.20;98343.25;5026353;28;20493;-61
2023/02/24 07:43:39;;;;;;;23.60;8.73;;;;;;;-1.01;50.16;98347.66;5076285;28;20055;-60
2023/02/24 07:46:13;;;;;;;20.60;8.13;;;;;;;-0.89;50.16;98344.09;5043132;28;20048;-60
2023/02/24 07:48:43;;;;;;;15.87;7.27;;;;;;;-1.13;51.15;98326.91;5059490;28;20133;-60
2023/02/24 07:51:14;;;;;;;18.53;7.50;;;;;;;-0.75;51.32;98328.22;5076107;28;20050;-60
2023/02/24 07:53:40;;;;;;;20.42;8.65;;;;;;;-0.94;50.50;98332.38;5058937;28;20058;-59
2023/02/24 07:56:12;;;;;;;21.03;8.67;;;;;;;-0.98;50.23;98323.97;5059075;28;20127;-61
2023/02/24 07:58:44;;;;;;;21.00;8.37;;;;;;;-0.22;50.39;98322.22;5076185;28;20060;-60
2023/02/24 08:01:21;;;;;;;20.37;7.60;;;;;;;-0.65;49.91;98328.34;5058957;28;20059;-60
2023/02/24 08:04:00;;;;;;;16.80;7.20;;;;;;;-0.17;50.22;98307.00;5076792;28;20101;-62
2023/02/24 08:06:37;;;;;;;23.97;7.90;;;;;;;0.00;49.70;98313.47;5075539;28;20102;-61
2023/02/24 08:09:17;;;;;;;18.23;8.20;;;;;;;-0.04;49.33;98314.66;5093349;28;20471;-60
2023/02/24 08:11:44;;;;;;;24.30;8.60;;;;;;;-0.29;50.17;98325.41;5075065;28;20051;-61
2023/02/24 08:14:14;;;;;;;25.47;8.53;;;;;;;-0.07;50.74;98294.88;5075204;28;20407;-62
2023/02/24 08:16:40;;;;;;;19.73;8.23;;;;;;;-0.23;49.83;98293.63;5041725;28;20511;-61
2023/02/24 08:19:06;;;;;;;18.87;7.90;;;;;;;-0.08;49.55;98303.63;5058330;28;20054;-61
2023/02/24 08:21:40;;;;;;;19.70;8.40;;;;;;;-0.12;50.19;98291.81;5025644;28;20069;-61
2023/02/24 08:24:22;;;;;;;17.70;8.47;;;;;;;0.35;49.80;98300.97;5042610;28;20035;-61
2023/02/24 08:27:03;;;;;;;20.43;8.30;;;;;;;0.43;50.08;98303.75;5074619;28;20472;-60
2023/02/24 08:29:45;;;;;;;;;;;;;;;0.75;49.64;98293.22;5077040;28;20418;-58
2023/02/24 08:32:10;;;;;;;18.23;8.75;;;;;;;0.17;49.57;98296.44;5091869;28;20236;-60
2023/02/24 08:34:37;;;;;;;16.13;7.47;;;;;;;0.13;50.07;98285.41;5058100;28;20059;-60
2023/02/24 08:37:03;;;;;;;22.87;9.67;;;;;;;0.16;49.58;98279.09;5058573;28;20040;-59
2023/02/24 08:39:32;;;;;;;16.43;8.00;;;;;;;-0.30;49.96;98280.25;5041668;28;20054;-59
2023/02/24 08:41:59;;;;;;;17.50;8.17;;;;;;;0.04;49.97;98280.94;5042083;28;20044;-60
2023/02/24 08:44:26;;;;;;;19.43;8.97;;;;;;;0.08;50.79;98273.69;5041844;28;20052;-61
2023/02/24 08:46:53;;;;;;;26.30;8.40;;;;;;;0.53;50.45;98278.53;5041299;28;20168;-61
2023/02/24 08:49:19;;;;;;;17.13;8.27;;;;;;;0.46;49.46;98271.34;5074561;28;20048;-59
2023/02/24 08:51:47;;;;;;;20.80;8.57;;;;;;;0.78;49.42;98275.53;5058059;28;20042;-57
2023/02/24 08:54:14;;;;;;;19.03;9.43;;;;;;;0.50;49.09;98272.72;5024190;28;20089;-59
2023/02/24 08:56:47;;;;;;;20.53;9.33;;;;;;;0.87;50.33;98268.66;5057702;28;20134;-62
2023/02/24 09:04:54;;;;;;;19.07;8.83;;;;;;;0.67;49.49;98254.69;5057218;28;20356;-61
2023/02/24 09:07:26;;;;;;;18.93;9.07;;;;;;;0.82;50.52;98260.38;5057548;28;20119;-58
2023/02/24 09:09:55;;;;;;;20.03;8.23;;;;;;;0.18;50.83;98251.09;5091906;28;20392;-62
2023/02/24 09:12:27;;;;;;;20.67;7.93;;;;;;;0.49;51.63;98276.31;5057762;28;20078;-60
2023/02/24 09:15:03;;;;;;;23.93;8.83;;;;;;;0.87;51.76;98255.59;5057681;28;20051;-60
2023/02/24 09:17:48;;;;;;;18.67;8.87;;;;;;;0.25;51.62;98260.09;5074159;28;20072;-59
2023/02/24 09:23:04;;;;;;;19.17;8.17;;;;;;;0.32;51.56;98241.16;5043274;28;20092;-60
2023/02/24 09:25:42;;;;;;;23.50;8.73;;;;;;;0.78;52.00;98241.53;5024259;28;20035;-60
2023/02/24 09:28:17;;;;;;;17.60;8.20;;;;;;;0.65;51.37;98238.31;5073843;28;20460;-62
2023/02/24 09:30:54;;;;;;;20.17;8.97;;;;;;;1.39;51.11;98235.25;5091445;28;20085;-61
2023/02/24 09:33:41;;;;;;;20.50;9.30;;;;;;;1.55;51.00;98226.88;5090422;28;20048;-61
2023/02/24 09:36:12;;;;;;;24.60;8.77;;;;;;;1.45;51.17;98231.25;5040503;28;20068;-61
2023/02/24 09:39:08;;;;;;;17.50;8.30;;;;;;;1.22;50.46;98233.28;5073216;28;20048;-62
2023/02/24 09:44:34;;;;;;;18.23;8.20;;;;;;;1.43;49.35;98227.97;5026612;28;20070;-59
2023/02/24 09:50:59;;;;;;;17.07;8.37;;;;;;;1.79;50.30;98219.47;5056840;28;20051;-60
2023/02/24 09:53:37;;;;;;;22.65;9.55;;;;;;;1.60;50.77;98207.19;5040353;28;20146;-60
2023/02/24 09:56:08;;;;;;;18.60;7.87;;;;;;;1.14;51.06;98195.69;5091486;28;20048;-63
2023/02/24 09:59:09;;;;;;;24.37;10.43;;;;;;;1.87;51.17;98205.66;5040664;28;20035;-62
2023/02/24 10:01:54;;;;;;;21.00;8.55;;;;;;;1.93;50.69;98184.19;5090708;28;20039;-61
2023/02/24 10:05:05;;;;;;;17.33;8.50;;;;;;;1.69;51.13;98174.97;5056750;28;20067;-62
2023/02/24 10:07:39;;;;;;;17.23;8.80;;;;;;;1.41;51.31;98172.34;5057840;28;20043;-61
2023/02/24 10:10:28;;;;;;;23.23;9.27;;;;;;;1.78;51.56;98178.56;5057166;28;20044;-61
2023/02/24 10:13:12;;;;;;;17.47;8.10;;;;;;;1.68;51.35;98167.25;5041049;28;20415;-62
2023/02/24 10:15:57;;;;;;;19.50;8.77;;;;;;;1.90;51.27;98166.97;5090752;28;20081;-59
2023/02/24 10:18:26;;;;;;;19.60;9.10;;;;;;;1.53;50.65;98169.47;5042385;28;20047;-59
2023/02/24 10:20:56;;;;;;;19.60;8.53;;;;;;;2.10;50.66;98165.97;5056799;28;20052;-59
2023/02/24 10:23:28;;;;;;;21.17;8.70;;;;;;;1.93;50.40;98160.63;5073509;28;20192;-62
2023/02/24 10:26:02;;;;;;;20.53;8.83;;;;;;;2.21;50.11;98168.44;5073173;28;20036;-62
2023/02/24 10:28:52;;;;;;;17.20;9.10;;;;;;;2.59;50.50;98152.59;5056676;28;20043;-60
2023/02/24 10:31:34;;;;;;;19.27;8.80;;;;;;;2.52;50.10;98148.06;5040326;28;20055;-61
2023/02/24 10:34:18;;;;;;;18.67;8.53;;;;;;;2.44;50.20;98150.56;5073251;28;20634;-61
2023/02/24 10:36:49;;;;;;;17.33;8.70;;;;;;;1.94;50.90;98146.59;5057089;28;20036;-61
2023/02/24 10:39:24;;;;;;;20.25;9.90;;;;;;;2.17;51.40;98142.66;5073985;28;20127;-61
2023/02/24 10:41:56;;;;;;;18.77;9.20;;;;;;;2.15;51.71;98132.34;5073854;28;20044;-61
2023/02/24 10:44:24;;;;;;;22.63;9.83;;;;;;;2.03;51.41;98148.34;5073173;28;20194;-61
2023/02/24 10:47:12;;;;;;;17.57;9.70;;;;;;;2.33;51.24;98137.66;5039966;28;20044;-61
2023/02/24 10:49:56;;;;;;;22.43;9.37;;;;;;;2.38;51.27;98123.16;5091730;28;20113;-59
2023/02/24 10:58:26;;;;;;;21.57;9.73;;;;;;;2.41;50.98;98135.97;5061510;28;20071;-62
2023/02/24 11:01:11;;;;;;;17.77;8.60;;;;;;;2.02;50.42;98142.28;5061413;28;20147;-61
2023/02/24 11:03:59;;;;;;;18.07;8.50;;;;;;;2.37;50.63;98154.75;5094342;28;20122;-62
2023/02/24 11:06:41;;;;;;;20.90;9.33;;;;;;;2.21;50.71;98144.03;5061604;28;20058;-59
2023/02/24 11:09:30;;;;;;;26.37;9.57;;;;;;;2.45;50.75;98129.47;5076264;28;20056;-61
2023/02/24 11:18:22;;;;;;;19.07;8.83;;;;;;;2.57;49.63;98102.09;5076390;28;20436;-61
2023/02/24 11:20:51;;;;;;;21.90;8.80;;;;;;;2.50;49.89;98100.22;5059349;28;20101;-60
2023/02/24 11:23:42;;;;;;;20.13;8.77;;;;;;;2.62;49.93;98110.34;5059441;28;20354;-61
2023/02/24 11:26:15;;;;;;;21.93;9.53;;;;;;;2.92;50.10;98091.69;5076180;28;20078;-59
2023/02/24 11:29:05;;;;;;;17.77;9.43;;;;;;;2.74;49.79;98084.75;5059386;28;20381;-57
2023/02/24 11:31:31;;;;;;;20.77;8.63;;;;;;;2.28;49.34;98093.53;5093828;28;20048;-56
2023/02/24 11:34:08;;;;;;;16.73;8.83;;;;;;;2.81;49.55;98086.69;5058956;28;20043;-57
2023/02/24 11:36:43;;;;;;;22.23;10.67;;;;;;;2.72;49.86;98095.41;5042797;28;20055;-61
2023/02/24 11:39:31;;;;;;;22.43;9.40;;;;;;;2.87;49.06;98093.94;5042562;28;20135;-58
2023/02/24 11:41:59;;;;;;;17.10;9.33;;;;;;;2.61;49.24;98076.44;5059259;28;20140;-59
2023/02/24 11:44:37;;;;;;;17.40;8.67;;;;;;;2.83;49.24;98078.66;5075723;28;20491;-60
2023/02/24 11:47:08;;;;;;;19.57;9.03;;;;;;;2.52;49.19;98079.94;5042411;28;20065;-58
2023/02/24 11:49:33;;;;;;;;;;;;;;;2.72;49.21;98084.91;5076512;28;20047;-57
2023/02/24 11:52:03;;;;;;;19.20;8.73;;;;;;;2.52;49.64;98064.22;5058937;28;20278;-58
2023/02/24 11:54:41;;;;;;;19.40;8.10;;;;;;;2.53;49.68;98044.91;5075674;28;20055;-61
2023/02/24 11:57:14;;;;;;;18.87;9.53;;;;;;;2.76;49.44;98049.59;5058703;28;20044;-61
2023/02/24 11:59:48;;;;;;;19.43;8.40;;;;;;;3.00;48.99;98062.09;5059114;28;20040;-64
2023/02/24 12:02:26;;;;;;;16.63;8.10;;;;;;;2.60;48.50;98062.50;5075135;28;20075;-59
2023/02/24 12:05:06;;;;;;;21.97;9.33;;;;;;;3.12;49.12;98055.69;5042099;28;20483;-62
2023/02/24 12:07:44;;;;;;;23.27;9.80;;;;;;;3.12;48.59;98056.50;5092291;28;20052;-61
2023/02/24 12:10:13;;;;;;;21.27;8.70;;;;;;;2.88;48.79;98064.13;5025504;28;20150;-64
2023/02/24 12:12:46;;;;;;;18.70;8.53;;;;;;;2.78;48.73;98052.06;5074974;28;20119;-59
2023/02/24 12:15:14;;;;;;;18.00;9.13;;;;;;;2.70;48.93;98049.34;5075364;28;20043;-61
2023/02/24 12:17:50;;;;;;;22.60;9.97;;;;;;;2.75;49.06;98053.16;5058396;28;20399;-61
2023/02/24 12:20:41;;;;;;;17.20;8.33;;;;;;;2.84;49.55;98049.69;5059138;28;20121;-62
2023/02/24 12:23:43;;;;;;;17.63;9.13;;;;;;;2.90;49.34;98049.09;5074911;28;20040;-61
2023/02/24 12:26:27;;;;;;;14.87;8.53;;;;;;;2.77;49.76;98047.78;5041512;28;20055;-60
2023/02/24 12:29:23;;;;;;;18.27;9.27;;;;;;;2.57;50.32;98039.22;5058514;28;20036;-60